Time;durP1;ratioP1;P1;durP2;ratioP2;P2;SDS_P1;SDS_P2;PMS_P1;PMS_P2;Temp;Humidity;BMP_temperature;BMP_pressure;BME280_temperature;BME280_humidity;BME280_pressure;Samples;Min_cycle;Max_cycle;Signal;HPM_P1;HPM_P2
2023/09/20 07:23:10;;;;;;;5.38;3.03;;;;;;;-145.79;90.36;76567.66;5337316;27;20696;-76
2023/09/20 07:25:43;;;;;;;5.00;2.85;;;;;;;-145.79;89.89;76567.66;5322007;28;20036;-77
2023/09/20 07:28:16;;;;;;;4.80;2.47;;;;;;;-145.79;89.58;76559.19;5304588;28;20066;-78
2023/09/20 07:30:47;;;;;;;5.55;2.88;;;;;;;-145.79;89.04;76554.94;5317713;28;20123;-78
2023/09/20 07:33:23;;;;;;;3.20;2.25;;;;;;;-145.79;89.04;76554.94;5321737;28;20111;-79
2023/09/20 07:36:01;;;;;;;6.45;2.60;;;;;;;-145.79;89.10;76554.94;5323195;28;20028;-78
2023/09/20 07:38:35;;;;;;;5.47;2.42;;;;;;;-145.79;88.19;76540.09;5355118;22;20044;-78
2023/09/20 07:41:12;;;;;;;4.78;2.58;;;;;;;-145.79;88.17;76533.75;5296780;28;20029;-78
2023/09/20 07:43:51;;;;;;;5.25;2.38;;;;;;;-145.79;87.88;76533.75;5296826;28;20021;-79
2023/09/20 07:46:23;;;;;;;5.43;2.65;;;;;;;-145.79;87.68;76531.63;5296795;28;20020;-80
2023/09/20 07:48:56;;;;;;;5.88;2.90;;;;;;;-145.79;87.44;76531.63;5300423;28;20046;-79
2023/09/20 07:51:29;;;;;;;3.67;2.50;;;;;;;-145.79;87.74;76527.38;5301323;28;20028;-78
2023/09/20 07:54:10;;;;;;;8.10;2.83;;;;;;;-145.79;87.23;76516.78;5301098;28;20301;-78
2023/09/20 07:56:43;;;;;;;6.53;3.28;;;;;;;-145.79;86.88;76521.03;5358366;22;20060;-79
2023/09/20 07:59:17;;;;;;;6.63;2.70;;;;;;;-145.79;87.07;76510.44;5278994;28;20071;-78
2023/09/20 08:01:52;;;;;;;4.28;2.50;;;;;;;-145.79;86.94;76499.84;5278079;28;20078;-77
2023/09/20 08:04:25;;;;;;;6.68;2.92;;;;;;;-145.79;86.39;76499.84;5279574;28;20025;-77
2023/09/20 08:06:58;;;;;;;6.20;3.13;;;;;;;-145.79;86.46;76499.84;5279010;28;20111;-76
2023/09/20 08:09:36;;;;;;;7.03;3.33;;;;;;;-145.79;86.32;76491.38;5278398;28;20032;-78
2023/09/20 08:12:11;;;;;;;6.40;4.13;;;;;;;-145.79;85.72;76491.38;5278070;28;20024;-75
2023/09/20 08:14:42;;;;;;;;;;;;;;;-145.79;85.85;76485.00;5279030;28;20079;-75
2023/09/20 08:20:09;;;;;;;6.15;3.55;;;;;;;-145.79;85.31;76480.78;5277813;28;20028;-77
2023/09/20 09:02:21;;;;;;;6.20;3.20;;;;;;;-145.79;82.23;76412.97;5243674;28;20037;-78
2023/09/20 09:04:54;;;;;;;4.88;2.85;;;;;;;-145.79;82.18;76410.84;5248117;28;20025;-77
2023/09/20 09:07:25;;;;;;;3.80;2.55;;;;;;;-145.79;82.42;76402.38;5264252;28;20021;-78
2023/09/20 09:09:58;;;;;;;7.53;2.65;;;;;;;-145.79;81.67;76396.00;5249164;28;20036;-76
2023/09/20 09:12:29;;;;;;;7.15;3.30;;;;;;;-145.79;81.63;76389.66;5243283;28;20025;-75
2023/09/20 09:15:01;;;;;;;5.75;2.70;;;;;;;-145.79;81.38;76387.53;5243818;28;20189;-76
2023/09/20 09:17:39;;;;;;;7.45;3.83;;;;;;;-145.79;80.93;76374.81;5241972;28;20057;-76
2023/09/20 09:20:16;;;;;;;5.03;2.40;;;;;;;-145.79;80.95;76383.28;5245977;28;20047;-76
2023/09/20 09:22:49;;;;;;;4.57;2.83;;;;;;;-145.79;80.91;76376.94;5263818;28;20025;-75
2023/09/20 09:25:30;;;;;;;5.20;3.35;;;;;;;-145.79;80.43;76372.69;5254807;28;20566;-73
2023/09/20 09:28:02;;;;;;;4.72;2.35;;;;;;;-145.79;80.04;76368.47;5261840;28;20452;-71
2023/09/20 09:30:34;;;;;;;3.65;2.40;;;;;;;-145.79;79.99;76366.34;5261090;28;20025;-74
2023/09/20 09:33:14;;;;;;;6.18;2.20;;;;;;;-145.79;79.77;76366.34;5263107;28;20024;-73
2023/09/20 09:35:48;;;;;;;4.28;2.38;;;;;;;-145.79;79.56;76355.75;5264124;28;20033;-77
2023/09/20 09:38:23;;;;;;;2.95;2.15;;;;;;;-145.79;79.86;76343.03;5264096;28;20426;-78
2023/09/20 09:40:56;;;;;;;3.60;2.10;;;;;;;-145.79;78.78;76328.19;5259704;28;20043;-79
2023/09/20 09:43:28;;;;;;;3.17;2.28;;;;;;;-145.79;78.36;76330.31;5252436;28;20042;-73
2023/09/20 09:46:08;;;;;;;4.07;2.53;;;;;;;-145.79;78.43;76326.06;5251589;28;20385;-75
2023/09/20 09:48:42;;;;;;;3.33;2.10;;;;;;;-145.79;78.14;76323.97;5254875;28;20108;-78
2023/09/20 09:51:16;;;;;;;3.05;2.45;;;;;;;-145.79;77.06;76309.13;5264138;28;20037;-73
2023/09/20 09:53:49;;;;;;;4.20;2.28;;;;;;;-145.79;77.02;76309.13;5266471;28;20444;-79
2023/09/20 09:56:21;;;;;;;4.97;2.15;;;;;;;-145.79;77.66;76300.66;5253996;28;20602;-77
2023/09/20 09:58:53;;;;;;;4.03;2.60;;;;;;;-145.79;77.28;76283.69;5265378;28;20068;-77
2023/09/20 10:01:28;;;;;;;4.40;2.58;;;;;;;-145.79;77.31;76275.22;5267872;28;20017;-78
2023/09/20 10:04:05;;;;;;;5.38;2.35;;;;;;;-145.79;76.92;76273.09;5268489;28;20065;-77
2023/09/20 10:07:05;;;;;;;3.50;2.08;;;;;;;-145.79;76.13;76270.97;5258098;28;20036;-77
2023/09/20 10:09:41;;;;;;;4.25;2.10;;;;;;;-145.79;75.97;76251.91;5273659;28;20450;-77
2023/09/20 10:12:15;;;;;;;15.25;13.15;;;;;;;-145.79;75.73;76254.03;5260699;28;20071;-75
2023/09/20 10:14:48;;;;;;;26.67;23.92;;;;;;;-145.79;75.22;76245.56;5267541;28;20028;-78
2023/09/20 10:17:20;;;;;;;3.58;2.15;;;;;;;-145.79;74.77;76220.13;5252634;28;20025;-77
2023/09/20 10:19:53;;;;;;;4.03;2.58;;;;;;;-145.79;73.92;76215.88;5256389;28;20047;-77
2023/09/20 10:22:26;;;;;;;2.97;1.60;;;;;;;-145.79;73.29;76181.97;5258362;28;20050;-77
2023/09/20 10:25:00;;;;;;;4.72;2.40;;;;;;;-145.79;71.87;76186.22;5262385;28;20035;-78
2023/09/20 10:27:32;;;;;;;3.40;2.10;;;;;;;-145.79;71.55;76171.38;5262659;28;20021;-78
2023/09/20 10:30:11;;;;;;;3.33;2.35;;;;;;;-145.79;71.19;76169.25;5262100;28;20361;-77
2023/09/20 10:32:47;;;;;;;4.63;2.20;;;;;;;-145.79;69.17;76169.25;5260240;28;20028;-73
2023/09/20 10:35:30;;;;;;;2.72;1.60;;;;;;;-145.79;69.56;76169.25;5251576;28;20041;-73
2023/09/20 10:41:03;;;;;;;3.92;2.10;;;;;;;-145.79;70.01;76150.19;5250635;28;20469;-73
2023/09/20 10:43:34;;;;;;;4.38;1.90;;;;;;;-145.79;69.47;76143.84;5260227;28;20114;-76
2023/09/20 10:46:07;;;;;;;5.00;1.70;;;;;;;-145.79;69.12;76148.06;5248481;28;20048;-75
2023/09/20 10:48:50;;;;;;;3.15;1.60;;;;;;;-145.79;69.92;76145.97;5251779;28;20840;-76
2023/09/20 10:51:43;;;;;;;4.85;1.60;;;;;;;-145.79;69.32;76148.06;5253702;28;20220;-72
2023/09/20 10:54:30;;;;;;;3.75;1.58;;;;;;;-145.79;69.23;76137.47;5241086;28;20037;-75
2023/09/20 10:57:09;;;;;;;4.47;1.52;;;;;;;-145.79;69.63;76129.00;5244396;28;20434;-74
2023/09/20 10:59:41;;;;;;;2.70;1.70;;;;;;;-145.79;68.93;76131.13;5257327;28;20112;-76
2023/09/20 11:02:16;;;;;;;4.78;2.03;;;;;;;-145.79;69.15;76122.66;5261507;28;20116;-76
2023/09/20 11:04:49;;;;;;;6.00;2.05;;;;;;;-145.79;69.31;76122.66;5253639;28;20423;-73
2023/09/20 11:07:20;;;;;;;3.45;1.70;;;;;;;-145.79;69.43;76118.41;5253531;28;20053;-79
2023/09/20 11:09:54;;;;;;;3.72;1.85;;;;;;;-145.79;69.36;76112.06;5254468;28;20510;-77
2023/09/20 11:12:28;;;;;;;2.92;1.58;;;;;;;-145.79;68.35;76101.47;5261959;28;20020;-78
2023/09/20 11:15:05;;;;;;;2.47;1.30;;;;;;;-145.79;69.23;76101.47;5262346;28;20025;-79
2023/09/20 11:17:39;;;;;;;5.55;1.70;;;;;;;-145.79;68.10;76092.97;5264709;28;20085;-81
2023/09/20 11:20:11;;;;;;;3.97;1.73;;;;;;;-145.79;67.98;76084.50;5262545;28;20087;-79
2023/09/20 11:22:43;;;;;;;2.28;1.52;;;;;;;-145.79;67.36;76076.03;5259096;28;20476;-79
2023/09/20 11:25:14;;;;;;;2.90;1.30;;;;;;;-145.79;66.63;76071.78;5255013;28;20032;-73
2023/09/20 11:27:47;;;;;;;3.40;1.50;;;;;;;-145.79;66.42;76080.28;5262334;28;20039;-77
2023/09/20 11:30:18;;;;;;;2.50;1.63;;;;;;;-145.79;66.53;76076.03;5260258;28;20029;-75
2023/09/20 11:32:49;;;;;;;2.90;1.50;;;;;;;-145.79;66.19;76076.03;5257630;28;20041;-75
2023/09/20 11:35:38;;;;;;;11.25;3.05;;;;;;;-145.79;65.90;76082.38;5257017;28;20044;-76
2023/09/20 11:38:11;;;;;;;2.00;1.30;;;;;;;-145.79;66.15;76092.97;5261614;28;20032;-78
2023/09/20 11:40:43;;;;;;;2.00;1.42;;;;;;;-145.79;67.23;76105.69;5260937;28;20021;-78
2023/09/20 11:43:23;;;;;;;3.28;1.60;;;;;;;-145.79;66.61;76109.94;5243020;28;20496;-79
2023/09/20 11:45:56;;;;;;;2.47;1.45;;;;;;;-145.79;66.93;76101.47;5240675;28;20033;-78
2023/09/20 11:48:29;;;;;;;3.83;1.58;;;;;;;-145.79;66.09;76105.69;5239897;28;20056;-76
2023/09/20 11:51:01;;;;;;;2.83;1.60;;;;;;;-145.79;65.79;76095.09;5245164;28;20037;-76
2023/09/20 11:53:33;;;;;;;3.55;2.05;;;;;;;-145.79;65.64;76099.34;5240694;28;20032;-75
2023/09/20 11:56:05;;;;;;;3.10;1.42;;;;;;;-145.79;66.17;76092.97;5240618;28;20029;-76
2023/09/20 11:58:37;;;;;;;4.35;1.70;;;;;;;-145.79;65.40;76090.88;5243035;28;20020;-76
2023/09/20 12:01:09;;;;;;;5.60;1.50;;;;;;;-145.79;65.31;76086.63;5260358;28;20521;-77
2023/09/20 12:03:41;;;;;;;2.67;1.45;;;;;;;-145.79;65.33;76082.38;5261942;28;20025;-77
2023/09/20 12:06:12;;;;;;;3.33;1.73;;;;;;;-145.79;65.70;76092.97;5262273;28;20018;-79
2023/09/20 12:08:45;;;;;;;4.50;1.67;;;;;;;-145.79;65.30;76090.88;5264655;28;20037;-78
2023/09/20 12:11:25;;;;;;;4.20;1.40;;;;;;;-145.79;64.36;76084.50;5258868;28;20092;-85
2023/09/20 12:13:56;;;;;;;6.40;2.35;;;;;;;-145.79;63.65;76097.22;5247050;28;20030;-80
2023/09/20 12:16:29;;;;;;;4.28;1.70;;;;;;;-145.79;63.79;76084.50;5246218;28;20056;-79
2023/09/20 12:19:02;;;;;;;2.85;1.77;;;;;;;-145.79;63.69;76080.28;5248443;28;20030;-81
2023/09/20 12:21:44;;;;;;;2.00;1.50;;;;;;;-145.79;64.33;76080.28;5264092;28;20029;-81
2023/09/20 12:24:17;;;;;;;3.40;1.60;;;;;;;-145.79;64.66;76084.50;5249641;28;20060;-80
2023/09/20 12:26:48;;;;;;;2.70;1.30;;;;;;;-145.79;64.82;76078.16;5265592;28;20037;-79
2023/09/20 12:29:22;;;;;;;3.45;2.28;;;;;;;-145.79;64.38;76078.16;5266915;28;20582;-78
2023/09/20 12:31:57;;;;;;;6.10;2.35;;;;;;;-145.79;65.28;76088.75;5259647;28;20041;-78
2023/09/20 12:34:29;;;;;;;5.25;1.25;;;;;;;-145.79;64.95;76076.03;5246789;28;20034;-79
2023/09/20 12:37:01;;;;;;;2.63;1.52;;;;;;;-145.79;64.34;76059.09;5253397;28;20100;-81
2023/09/20 12:39:36;;;;;;;4.95;1.50;;;;;;;-145.79;64.48;76061.19;5257620;28;20360;-80
2023/09/20 12:42:11;;;;;;;5.07;1.47;;;;;;;-145.79;64.81;76046.38;5267926;28;20032;-78
2023/09/20 12:44:44;;;;;;;3.40;1.70;;;;;;;-145.79;64.22;76050.59;5262528;28;20611;-78
2023/09/20 12:47:18;;;;;;;1.98;1.52;;;;;;;-145.79;64.13;76040.00;5265168;28;20040;-79
2023/09/20 12:49:52;;;;;;;4.18;2.08;;;;;;;-145.79;63.60;76029.41;5263211;28;20037;-82
2023/09/20 12:52:23;;;;;;;8.27;2.00;;;;;;;-145.79;63.35;76016.69;5248545;28;20075;-82
2023/09/20 12:54:55;;;;;;;4.15;1.67;;;;;;;-145.79;63.52;76004.00;5247885;28;20496;-83
2023/09/20 12:57:28;;;;;;;2.25;1.48;;;;;;;-145.79;63.41;76014.59;5246327;28;20033;-81
2023/09/20 13:00:00;;;;;;;4.00;1.63;;;;;;;-145.79;63.76;76016.69;5250358;28;20166;-83
2023/09/20 13:02:32;;;;;;;1.83;1.73;;;;;;;-145.79;63.92;76025.19;5266156;28;20107;-82
2023/09/20 13:05:07;;;;;;;5.13;1.92;;;;;;;-145.79;64.00;76025.19;5265146;28;20112;-79
2023/09/20 13:07:39;;;;;;;3.60;1.42;;;;;;;-145.79;63.84;75999.75;5258967;28;20439;-82
2023/09/20 13:10:13;;;;;;;4.93;1.70;;;;;;;-145.79;63.35;76010.34;5250038;28;20021;-80
2023/09/20 13:12:46;;;;;;;5.13;1.90;;;;;;;-145.79;63.64;76008.22;5259067;28;20079;-82
2023/09/20 13:15:19;;;;;;;3.65;1.67;;;;;;;-145.79;63.83;75982.81;5244291;28;20120;-79
2023/09/20 13:17:55;;;;;;;2.35;1.30;;;;;;;-145.79;63.80;75991.28;5253519;28;20025;-81
2023/09/20 13:20:27;;;;;;;3.30;1.92;;;;;;;-145.79;63.73;75991.28;5264777;28;20066;-79
2023/09/20 13:22:58;;;;;;;3.13;1.63;;;;;;;-145.79;63.66;75984.91;5262886;28;20045;-79
2023/09/20 13:25:32;;;;;;;2.40;1.40;;;;;;;-145.79;63.25;75982.81;5263483;28;20029;-80
2023/09/20 13:28:05;;;;;;;6.68;2.35;;;;;;;-145.79;63.30;75976.44;5264792;28;20025;-81
2023/09/20 13:30:40;;;;;;;3.15;1.45;;;;;;;-145.79;63.32;75965.84;5245596;28;20521;-79
2023/09/20 13:33:12;;;;;;;2.20;1.55;;;;;;;-145.79;63.92;75953.13;5263065;28;20025;-79
2023/09/20 13:35:44;;;;;;;5.75;3.47;;;;;;;-145.79;63.52;75957.38;5264540;28;20029;-80
2023/09/20 13:38:18;;;;;;;3.53;1.38;;;;;;;-145.79;63.19;75955.25;5264927;28;20506;-78
2023/09/20 13:40:51;;;;;;;2.50;1.30;;;;;;;-145.79;63.39;75948.91;5262772;28;20029;-79
2023/09/20 13:43:22;;;;;;;2.25;1.20;;;;;;;-145.79;62.97;75957.38;5263736;28;20060;-78
2023/09/20 13:45:54;;;;;;;2.35;1.30;;;;;;;-145.79;63.57;75957.38;5263116;28;20066;-81
2023/09/20 13:48:26;;;;;;;2.90;1.80;;;;;;;-145.79;64.16;75965.84;5263202;28;20024;-81
2023/09/20 13:50:57;;;;;;;2.75;1.30;;;;;;;-145.79;63.95;75953.13;5264895;28;20032;-77
2023/09/20 13:53:32;;;;;;;2.65;1.50;;;;;;;-145.79;63.71;75940.41;5263791;28;20013;-81
2023/09/20 13:56:03;;;;;;;2.03;1.43;;;;;;;-145.79;63.47;75938.31;5264212;28;20052;-81
2023/09/20 13:58:40;;;;;;;2.90;1.33;;;;;;;-145.79;63.30;75927.72;5251603;28;20323;-79
2023/09/20 14:01:11;;;;;;;3.05;1.40;;;;;;;-145.79;63.10;75936.19;5256405;28;20495;-81
2023/09/20 14:03:44;;;;;;;3.72;3.00;;;;;;;-145.79;63.22;75906.53;5264606;28;20021;-82
2023/09/20 14:06:18;;;;;;;2.47;1.33;;;;;;;-145.79;63.22;75915.00;5262633;28;20555;-81
2023/09/20 14:08:50;;;;;;;4.10;1.58;;;;;;;-145.79;63.03;75912.88;5255853;28;20040;-81
2023/09/20 14:11:22;;;;;;;2.88;1.30;;;;;;;-145.79;62.27;75915.00;5252971;28;20037;-83
2023/09/20 14:13:53;;;;;;;1.50;1.38;;;;;;;-145.79;62.12;75908.63;5240394;28;20029;-81
2023/09/20 14:16:25;;;;;;;2.95;1.50;;;;;;;-145.79;61.86;75912.88;5243981;28;20013;-80
2023/09/20 14:18:56;;;;;;;3.10;1.60;;;;;;;-145.79;61.80;75917.13;5242323;28;20045;-79
2023/09/20 14:21:28;;;;;;;2.28;1.15;;;;;;;-145.79;61.89;75910.75;5241593;28;20025;-80
2023/09/20 14:24:03;;;;;;;1.80;1.40;;;;;;;-145.79;61.35;75917.13;5242391;28;20108;-80
2023/09/20 14:26:38;;;;;;;5.25;1.63;;;;;;;-145.79;61.23;75925.59;5242358;28;20124;-82
2023/09/20 14:29:10;;;;;;;3.22;1.58;;;;;;;-145.79;61.37;75919.22;5242408;28;20040;-83
2023/09/20 14:31:43;;;;;;;4.50;2.35;;;;;;;-145.79;61.83;75927.72;5252529;28;20029;-78
2023/09/20 14:34:18;;;;;;;1.88;1.60;;;;;;;-145.79;62.14;75927.72;5247582;28;20053;-80
2023/09/20 14:36:49;;;;;;;2.05;1.40;;;;;;;-145.79;61.95;75927.72;5249341;28;20026;-81
2023/09/20 14:39:20;;;;;;;2.42;1.42;;;;;;;-145.79;62.31;75919.22;5261453;28;20025;-81
2023/09/20 14:41:52;;;;;;;2.80;1.65;;;;;;;-145.79;62.19;75927.72;5262596;28;20033;-82
2023/09/20 14:44:23;;;;;;;2.72;1.55;;;;;;;-145.79;62.42;75925.59;5265684;28;20052;-83
2023/09/20 14:46:54;;;;;;;3.03;1.52;;;;;;;-145.79;62.40;75923.47;5270666;28;20083;-79
2023/09/20 14:49:26;;;;;;;2.20;1.42;;;;;;;-145.79;63.00;75923.47;5272406;28;20384;-81
2023/09/20 14:52:01;;;;;;;1.88;1.40;;;;;;;-145.79;62.81;75925.59;5269998;28;20029;-79
2023/09/20 14:54:35;;;;;;;3.78;1.75;;;;;;;-145.79;62.81;75915.00;5267886;28;20037;-82
2023/09/20 14:57:06;;;;;;;4.47;2.22;;;;;;;-145.79;62.54;75915.00;5262257;28;20033;-81
2023/09/20 14:59:38;;;;;;;5.97;4.60;;;;;;;-145.79;63.08;75912.88;5264716;28;20032;-81
2023/09/20 15:02:12;;;;;;;8.43;3.10;;;;;;;-145.79;62.95;75919.22;5264014;28;20033;-80
2023/09/20 15:04:44;;;;;;;4.05;1.67;;;;;;;-145.79;62.95;75915.00;5253314;28;20025;-82
2023/09/20 15:07:16;;;;;;;2.03;1.58;;;;;;;-145.79;63.03;75915.00;5245706;28;20063;-81
2023/09/20 15:09:48;;;;;;;2.70;1.50;;;;;;;-145.79;62.72;75921.34;5253225;28;20409;-81
2023/09/20 15:12:20;;;;;;;1.50;1.40;;;;;;;-145.79;62.73;75906.53;5255161;28;20025;-80
2023/09/20 15:14:52;;;;;;;3.90;1.48;;;;;;;-145.79;62.52;75915.00;5246938;28;20032;-81
2023/09/20 15:17:24;;;;;;;3.60;1.90;;;;;;;-145.79;62.45;75910.75;5258535;28;20029;-82
2023/09/20 15:19:57;;;;;;;5.47;1.67;;;;;;;-145.79;62.38;75919.22;5252329;28;20071;-75
2023/09/20 15:22:33;;;;;;;3.40;1.70;;;;;;;-145.79;62.70;75910.75;5259183;28;20060;-80
2023/09/20 15:25:04;;;;;;;;;;;;;;;-145.79;62.82;75900.16;5232607;28;20026;-84
2023/09/20 15:27:37;;;;;;;3.03;1.33;;;;;;;-145.79;62.98;75900.16;5262343;28;20356;-81
2023/09/20 15:30:09;;;;;;;2.70;1.88;;;;;;;-145.79;63.16;75898.03;5262904;28;20052;-80
2023/09/20 15:32:41;;;;;;;3.50;1.65;;;;;;;-145.79;63.27;75908.63;5265660;28;20028;-80
2023/09/20 15:35:12;;;;;;;4.38;1.60;;;;;;;-145.79;63.12;75898.03;5256871;28;20383;-82
2023/09/20 15:37:45;;;;;;;3.42;1.85;;;;;;;-145.79;62.95;75908.63;5259364;28;20112;-82
2023/09/20 15:40:16;;;;;;;2.85;1.52;;;;;;;-145.79;62.73;75891.69;5264385;28;20116;-82
2023/09/20 15:42:48;;;;;;;2.75;1.75;;;;;;;-145.79;61.61;75898.03;5264409;28;20053;-80
2023/09/20 15:45:20;;;;;;;3.92;2.25;;;;;;;-145.79;61.48;75902.28;5263214;28;20025;-80
2023/09/20 15:47:54;;;;;;;5.28;3.60;;;;;;;-145.79;61.15;75895.94;5271969;28;20035;-80
2023/09/20 15:50:27;;;;;;;2.70;2.30;;;;;;;-145.79;61.41;75893.81;5274988;28;20139;-81
2023/09/20 15:52:58;;;;;;;3.83;1.60;;;;;;;-145.79;60.80;75891.69;5250278;28;20039;-80
2023/09/20 15:55:30;;;;;;;2.20;1.60;;;;;;;-145.79;61.31;75893.81;5265800;28;20053;-79
2023/09/20 15:58:01;;;;;;;2.33;1.67;;;;;;;-145.79;61.28;75902.28;5264259;28;20025;-78
2023/09/20 16:00:32;;;;;;;3.88;1.77;;;;;;;-145.79;61.40;75889.56;5260947;28;20025;-77
2023/09/20 16:03:04;;;;;;;2.97;1.70;;;;;;;-145.79;61.47;75889.56;5263648;28;20024;-76
2023/09/20 16:05:35;;;;;;;3.13;1.75;;;;;;;-145.79;61.44;75885.34;5255593;28;20033;-71
2023/09/20 16:08:06;;;;;;;5.20;2.08;;;;;;;-145.79;61.52;75891.69;5256362;28;20045;-74
2023/09/20 16:10:38;;;;;;;6.22;2.22;;;;;;;-145.79;61.64;75887.44;5259349;28;20047;-78
2023/09/20 16:13:13;;;;;;;3.85;2.00;;;;;;;-145.79;61.74;75881.09;5257937;28;20021;-77
2023/09/20 16:15:44;;;;;;;3.17;1.98;;;;;;;-145.79;61.45;75889.56;5264215;28;20055;-79
2023/09/20 16:18:18;;;;;;;4.53;2.08;;;;;;;-145.79;61.54;75889.56;5259626;28;20333;-78
2023/09/20 16:20:49;;;;;;;4.43;2.00;;;;;;;-145.79;61.52;75889.56;5252618;28;20037;-77
2023/09/20 16:23:21;;;;;;;4.70;1.90;;;;;;;-145.79;61.29;75893.81;5259577;28;20025;-77
2023/09/20 16:25:52;;;;;;;5.88;2.25;;;;;;;-145.79;61.70;75898.03;5254353;28;20396;-78
2023/09/20 16:28:24;;;;;;;6.18;2.28;;;;;;;-145.79;62.13;75889.56;5253797;28;20060;-79
2023/09/20 16:30:55;;;;;;;3.95;2.00;;;;;;;-145.79;61.83;75893.81;5264079;28;20029;-79
2023/09/20 16:33:27;;;;;;;2.47;2.00;;;;;;;-145.79;62.03;75889.56;5256001;28;20517;-78
2023/09/20 16:35:58;;;;;;;2.45;1.83;;;;;;;-145.79;62.16;75887.44;5264651;28;20050;-78
2023/09/20 16:38:29;;;;;;;3.38;2.22;;;;;;;-145.79;62.30;75889.56;5259865;28;20054;-78
2023/09/20 16:41:04;;;;;;;7.53;2.47;;;;;;;-145.79;62.62;75878.97;5254985;28;20041;-78
2023/09/20 16:43:35;;;;;;;4.53;2.40;;;;;;;-145.79;62.97;75870.50;5270668;28;20037;-79
2023/09/20 16:46:06;;;;;;;3.28;2.38;;;;;;;-145.79;63.10;75868.38;5262326;28;20499;-78
2023/09/20 16:48:40;;;;;;;3.13;2.35;;;;;;;-145.79;63.41;75859.91;5266645;28;20174;-78
2023/09/20 16:51:13;;;;;;;7.72;3.00;;;;;;;-145.79;63.05;75866.25;5276166;28;20025;-79
2023/09/20 16:53:44;;;;;;;3.60;2.55;;;;;;;-145.79;62.75;75868.38;5279078;28;20037;-78
